Time;durP1;ratioP1;P1;durP2;ratioP2;P2;SDS_P1;SDS_P2;PMS_P1;PMS_P2;Temp;Humidity;BMP_temperature;BMP_pressure;BME280_temperature;BME280_humidity;BME280_pressure;Samples;Min_cycle;Max_cycle;Signal;HPM_P1;HPM_P2
2021/10/14 00:00:36;;;;;;;6.47;3.88;;;12.50;98.30;;;;;;5008131;28;20022;-86
2021/10/14 00:03:03;;;;;;;7.43;3.80;;;12.50;98.40;;;;;;5052530;28;20025;-86
2021/10/14 00:05:29;;;;;;;7.60;3.70;;;12.50;98.30;;;;;;5044065;28;20049;-87
2021/10/14 00:07:55;;;;;;;10.88;4.05;;;12.50;98.40;;;;;;5034326;28;20029;-86
2021/10/14 00:10:20;;;;;;;8.25;3.80;;;12.50;98.50;;;;;;5005605;28;20056;-86
2021/10/14 00:12:46;;;;;;;9.27;4.10;;;12.50;98.60;;;;;;5021760;28;20014;-86
2021/10/14 00:15:12;;;;;;;7.65;3.83;;;12.50;98.70;;;;;;5033487;28;20385;-86
2021/10/14 00:17:37;;;;;;;6.88;4.00;;;12.50;98.70;;;;;;5008037;28;20425;-86
2021/10/14 00:20:05;;;;;;;6.82;4.40;;;12.50;98.80;;;;;;5031418;28;20039;-86
2021/10/14 00:22:31;;;;;;;8.07;4.03;;;12.50;98.80;;;;;;5039949;28;20037;-86
2021/10/14 00:24:56;;;;;;;8.48;4.30;;;12.60;98.80;;;;;;5043896;28;20021;-86
2021/10/14 00:27:22;;;;;;;12.82;4.85;;;12.60;98.80;;;;;;5006678;28;20474;-86
2021/10/14 00:29:48;;;;;;;9.10;5.18;;;12.60;99.10;;;;;;5005863;28;20034;-86
2021/10/14 00:32:13;;;;;;;9.50;5.32;;;12.60;98.90;;;;;;5020048;28;20351;-86
2021/10/14 00:34:39;;;;;;;11.52;5.63;;;12.60;98.80;;;;;;5035044;28;20059;-86
2021/10/14 00:37:05;;;;;;;8.55;5.45;;;12.60;98.80;;;;;;5011416;28;20115;-86
2021/10/14 00:39:30;;;;;;;10.25;5.90;;;12.70;98.80;;;;;;5038118;28;20522;-86
2021/10/14 00:41:56;;;;;;;12.35;6.20;;;12.60;98.90;;;;;;5022171;28;20044;-86
2021/10/14 00:44:21;;;;;;;12.13;6.55;;;12.60;99.00;;;;;;5005842;28;20532;-86
2021/10/14 00:46:52;;;;;;;10.73;5.80;;;12.70;98.90;;;;;;5033267;28;20021;-86
2021/10/14 00:49:17;;;;;;;13.90;7.32;;;12.60;98.90;;;;;;5024018;28;20082;-86
2021/10/14 00:51:43;;;;;;;11.57;6.70;;;12.60;99.00;;;;;;5013266;28;20025;-86
2021/10/14 00:54:11;;;;;;;10.73;6.85;;;12.60;99.00;;;;;;5010397;28;20055;-86
2021/10/14 00:56:36;;;;;;;8.98;6.18;;;12.60;99.10;;;;;;5021424;28;20486;-86
2021/10/14 00:59:02;;;;;;;11.32;7.13;;;12.60;99.20;;;;;;5009830;28;20055;-86
2021/10/14 01:01:28;;;;;;;11.80;7.65;;;12.60;99.20;;;;;;5052027;28;20021;-86
2021/10/14 01:03:53;;;;;;;12.00;6.80;;;12.60;99.30;;;;;;5037343;28;20021;-86
2021/10/14 01:06:20;;;;;;;13.20;8.60;;;12.60;99.20;;;;;;5004677;28;20090;-86
2021/10/14 01:08:45;;;;;;;15.35;8.45;;;12.70;99.50;;;;;;5019789;28;20491;-86
2021/10/14 01:11:11;;;;;;;14.20;9.32;;;12.60;99.40;;;;;;5017765;28;20112;-87
2021/10/14 01:13:38;;;;;;;18.00;9.50;;;12.60;99.50;;;;;;5001131;28;20022;-86
2021/10/14 01:16:04;;;;;;;14.23;8.50;;;12.60;99.60;;;;;;5017011;28;20022;-86
2021/10/14 01:18:31;;;;;;;13.02;8.80;;;12.60;99.60;;;;;;5047176;28;20017;-86
2021/10/14 01:20:56;;;;;;;14.88;9.10;;;12.60;99.90;;;;;;5037186;28;20071;-87
2021/10/14 01:23:22;;;;;;;14.68;9.77;;;12.60;99.90;;;;;;5004569;28;20072;-87
2021/10/14 01:25:48;;;;;;;19.42;12.40;;;12.60;99.70;;;;;;5004599;28;20032;-87
2021/10/14 01:28:15;;;;;;;16.75;10.05;;;12.60;99.70;;;;;;5020775;28;20040;-87
2021/10/14 01:30:41;;;;;;;13.68;9.57;;;12.60;99.80;;;;;;5054822;28;20373;-87
2021/10/14 01:33:07;;;;;;;17.13;11.13;;;12.60;99.70;;;;;;5013527;28;20025;-87
2021/10/14 01:35:33;;;;;;;16.45;11.85;;;12.60;99.90;;;;;;5042631;28;20028;-87
2021/10/14 01:37:59;;;;;;;16.83;12.05;;;12.70;99.90;;;;;;5033414;28;20115;-87
2021/10/14 01:40:25;;;;;;;17.05;11.40;;;12.60;99.90;;;;;;5020571;28;20044;-87
2021/10/14 01:42:50;;;;;;;17.52;11.68;;;12.60;99.90;;;;;;5034327;28;20513;-87
2021/10/14 01:45:16;;;;;;;18.20;12.90;;;12.70;99.90;;;;;;5020835;28;20098;-87
2021/10/14 01:47:42;;;;;;;17.00;12.07;;;12.60;99.90;;;;;;5039906;28;20024;-87
2021/10/14 01:50:08;;;;;;;18.75;13.07;;;12.60;99.90;;;;;;5040202;28;20420;-87
2021/10/14 01:52:34;;;;;;;17.02;11.75;;;12.60;99.90;;;;;;5026107;28;20025;-87
2021/10/14 01:55:00;;;;;;;22.33;12.77;;;12.70;99.90;;;;;;5033463;28;20155;-86
2021/10/14 01:57:25;;;;;;;19.33;12.90;;;12.60;99.90;;;;;;5020502;28;20070;-85
2021/10/14 01:59:51;;;;;;;19.20;13.95;;;12.70;99.90;;;;;;5038546;28;20119;-87
2021/10/14 02:02:17;;;;;;;19.65;13.18;;;12.70;99.90;;;;;;5026271;28;20033;-87
2021/10/14 02:04:42;;;;;;;17.98;13.20;;;12.70;99.90;;;;;;5017411;28;20447;-87
2021/10/14 02:07:08;;;;;;;20.52;12.43;;;12.70;99.90;;;;;;5028694;28;20025;-87
2021/10/14 02:09:33;;;;;;;17.83;12.43;;;12.60;99.90;;;;;;5022879;28;20083;-87
2021/10/14 02:11:59;;;;;;;21.30;13.73;;;12.70;99.90;;;;;;5039354;28;20033;-87
2021/10/14 02:14:25;;;;;;;19.55;13.05;;;12.70;99.90;;;;;;5043983;28;20017;-87
2021/10/14 02:16:51;;;;;;;21.65;13.60;;;12.70;99.90;;;;;;5038663;28;20048;-87
2021/10/14 02:19:16;;;;;;;25.23;16.65;;;12.70;99.90;;;;;;5029404;28;20104;-87
2021/10/14 02:21:42;;;;;;;25.30;16.35;;;12.70;99.90;;;;;;5036577;28;20072;-87
2021/10/14 02:24:08;;;;;;;22.27;15.60;;;12.70;99.90;;;;;;5018410;28;20057;-88
2021/10/14 02:30:26;;;;;;;26.08;16.77;;;12.70;99.90;;;;;;5057336;28;20051;-86
2021/10/14 02:33:40;;;;;;;36.40;20.10;;;12.70;99.90;;;;;;5013616;28;20036;-87
2021/10/14 02:36:06;;;;;;;28.85;18.42;;;12.70;99.90;;;;;;5041969;28;20040;-87
2021/10/14 02:38:31;;;;;;;27.45;18.40;;;12.70;99.90;;;;;;5019738;28;20388;-87
2021/10/14 02:40:57;;;;;;;31.52;18.42;;;12.70;99.90;;;;;;5061402;28;20117;-87
2021/10/14 02:43:23;;;;;;;30.05;18.08;;;12.70;99.90;;;;;;5026477;28;20029;-87
2021/10/14 02:45:49;;;;;;;28.17;18.35;;;12.70;99.90;;;;;;5041482;28;20031;-87
2021/10/14 02:48:14;;;;;;;28.63;17.92;;;12.70;99.90;;;;;;5017412;28;20017;-87
2021/10/14 02:50:40;;;;;;;28.73;18.13;;;12.70;99.90;;;;;;5031488;28;20032;-87
2021/10/14 02:53:06;;;;;;;30.27;17.75;;;12.70;99.90;;;;;;5022751;28;20032;-87
2021/10/14 02:55:32;;;;;;;30.75;18.80;;;12.80;99.90;;;;;;4999949;28;20051;-87
2021/10/14 02:57:58;;;;;;;33.30;19.95;;;12.70;99.90;;;;;;5028860;28;20119;-87
2021/10/14 03:00:23;;;;;;;31.15;19.60;;;12.80;99.90;;;;;;5026894;28;20071;-87
2021/10/14 03:02:49;;;;;;;31.75;20.50;;;12.80;99.90;;;;;;5042585;28;20446;-87
2021/10/14 03:05:15;;;;;;;27.48;18.50;;;12.80;99.90;;;;;;5016272;28;20120;-87
2021/10/14 03:07:41;;;;;;;25.45;17.35;;;12.80;99.90;;;;;;5016906;28;20063;-87
2021/10/14 03:10:08;;;;;;;28.55;18.10;;;12.80;99.90;;;;;;5027836;28;20033;-87
2021/10/14 03:12:34;;;;;;;25.33;18.90;;;12.80;99.90;;;;;;5054865;28;20016;-87
2021/10/14 03:15:00;;;;;;;27.60;18.17;;;12.80;99.90;;;;;;5019664;28;20021;-87
2021/10/14 03:17:25;;;;;;;31.02;19.30;;;12.80;99.90;;;;;;5032050;28;20066;-87
2021/10/14 03:19:51;;;;;;;29.30;19.75;;;12.80;99.90;;;;;;5025126;28;20423;-86
2021/10/14 03:22:17;;;;;;;25.92;17.73;;;12.80;99.90;;;;;;5040328;28;20355;-86
2021/10/14 03:24:42;;;;;;;29.08;18.88;;;12.80;99.90;;;;;;5025949;28;20039;-87
2021/10/14 03:27:08;;;;;;;26.48;19.10;;;12.80;99.90;;;;;;5007045;28;20048;-87
2021/10/14 03:29:33;;;;;;;28.48;19.77;;;12.80;99.90;;;;;;5022994;28;20029;-87
2021/10/14 03:31:59;;;;;;;28.90;20.90;;;12.80;99.90;;;;;;5023201;28;20120;-86
2021/10/14 03:34:25;;;;;;;27.10;19.98;;;12.80;99.90;;;;;;5035633;28;20101;-87
2021/10/14 03:36:50;;;;;;;29.25;19.77;;;12.80;99.90;;;;;;5024099;28;20029;-86
2021/10/14 03:39:16;;;;;;;27.17;19.20;;;12.80;99.90;;;;;;5032438;28;20112;-87
2021/10/14 03:41:42;;;;;;;26.60;19.00;;;12.70;99.90;;;;;;5043319;28;20037;-86
2021/10/14 03:44:08;;;;;;;24.52;17.02;;;12.80;99.90;;;;;;5022752;28;20029;-87
2021/10/14 03:46:33;;;;;;;24.95;18.60;;;12.80;99.90;;;;;;5052691;28;20385;-87
2021/10/14 03:48:59;;;;;;;25.17;19.65;;;12.80;99.90;;;;;;5034132;28;20124;-86
2021/10/14 03:51:25;;;;;;;26.98;19.35;;;12.80;99.90;;;;;;5002539;28;20026;-86
2021/10/14 03:53:51;;;;;;;26.77;18.52;;;12.80;99.90;;;;;;4994911;28;20072;-87
2021/10/14 03:56:16;;;;;;;26.48;18.92;;;12.80;99.90;;;;;;5038262;28;20540;-86
2021/10/14 03:58:42;;;;;;;27.92;18.67;;;12.80;99.90;;;;;;5005971;28;20211;-87
2021/10/14 04:01:07;;;;;;;27.35;19.90;;;12.80;99.90;;;;;;5022203;28;20025;-87
2021/10/14 04:03:33;;;;;;;29.65;20.92;;;12.80;99.90;;;;;;5002833;28;20116;-87
2021/10/14 04:05:59;;;;;;;29.77;20.58;;;12.80;99.90;;;;;;5032404;28;20033;-87
2021/10/14 04:08:24;;;;;;;29.05;21.42;;;12.80;99.90;;;;;;5002398;28;20025;-87
2021/10/14 04:10:50;;;;;;;28.90;18.95;;;12.80;99.90;;;;;;5038364;28;20471;-87
2021/10/14 04:13:16;;;;;;;27.35;18.85;;;12.80;99.90;;;;;;5022138;28;20092;-87
2021/10/14 04:15:41;;;;;;;29.17;20.77;;;12.80;99.90;;;;;;5002365;28;20112;-87
2021/10/14 04:18:07;;;;;;;25.23;18.60;;;12.80;99.90;;;;;;5035742;28;20021;-87
2021/10/14 04:20:33;;;;;;;26.65;18.73;;;12.80;99.90;;;;;;5022018;28;20040;-87
2021/10/14 04:22:59;;;;;;;23.77;18.38;;;12.80;99.90;;;;;;5019031;28;20086;-87
2021/10/14 04:25:26;;;;;;;29.25;20.77;;;12.80;99.90;;;;;;5005569;28;20033;-87
2021/10/14 04:27:52;;;;;;;26.88;19.63;;;12.80;99.90;;;;;;5038431;28;20074;-86
2021/10/14 04:30:18;;;;;;;29.60;21.05;;;12.80;99.90;;;;;;5070659;28;20533;-87
2021/10/14 04:32:44;;;;;;;28.73;22.02;;;12.70;99.90;;;;;;5018378;28;20025;-87
2021/10/14 04:35:10;;;;;;;27.88;21.10;;;12.80;99.90;;;;;;5020729;28;20040;-87
2021/10/14 04:37:39;;;;;;;27.98;21.30;;;12.70;99.90;;;;;;5015119;28;20021;-87
2021/10/14 04:40:05;;;;;;;26.45;20.35;;;12.70;99.90;;;;;;5044111;28;20025;-87
2021/10/14 04:42:31;;;;;;;25.50;19.02;;;12.70;99.90;;;;;;5021670;28;20017;-87
2021/10/14 04:44:57;;;;;;;30.60;20.83;;;12.70;99.90;;;;;;5001526;28;20087;-87
2021/10/14 04:47:22;;;;;;;27.88;20.70;;;12.70;99.90;;;;;;5023486;28;20036;-88
2021/10/14 04:49:48;;;;;;;26.80;21.05;;;12.70;99.90;;;;;;5018929;28;20445;-88
2021/10/14 04:52:14;;;;;;;30.83;20.45;;;12.70;99.90;;;;;;5037054;28;20051;-88
2021/10/14 04:54:40;;;;;;;37.97;21.48;;;12.80;99.90;;;;;;5037073;28;20041;-88
2021/10/14 04:57:06;;;;;;;27.30;19.67;;;12.70;99.90;;;;;;5022377;28;20054;-88
2021/10/14 04:59:32;;;;;;;26.40;19.00;;;12.70;99.90;;;;;;5003933;28;20037;-88
2021/10/14 05:01:57;;;;;;;27.83;19.27;;;12.70;99.90;;;;;;5008786;28;20025;-90
2021/10/14 05:04:23;;;;;;;29.95;20.67;;;12.70;99.90;;;;;;5039298;28;20705;-88
2021/10/14 05:06:49;;;;;;;27.30;20.52;;;12.80;99.90;;;;;;5005870;28;20040;-88
2021/10/14 05:09:14;;;;;;;26.00;19.00;;;12.80;99.90;;;;;;5005505;28;20043;-88
2021/10/14 05:11:40;;;;;;;27.73;20.70;;;12.80;99.90;;;;;;5044862;28;20044;-90
2021/10/14 05:14:06;;;;;;;27.60;19.02;;;12.80;99.90;;;;;;5016231;28;20040;-90
2021/10/14 05:16:34;;;;;;;24.90;18.88;;;12.80;99.90;;;;;;5030067;28;20104;-89
2021/10/14 05:19:01;;;;;;;26.92;19.58;;;12.80;99.90;;;;;;5036747;28;20017;-88
2021/10/14 05:21:31;;;;;;;32.35;20.45;;;12.80;99.90;;;;;;5041430;28;20039;-87
2021/10/14 05:24:00;;;;;;;33.30;22.02;;;12.80;99.90;;;;;;5040128;28;20108;-87
2021/10/14 05:26:27;;;;;;;27.02;19.73;;;12.80;99.90;;;;;;5025637;28;20048;-87
2021/10/14 05:28:54;;;;;;;29.75;20.38;;;12.80;99.90;;;;;;5065546;28;20024;-88
2021/10/14 05:31:20;;;;;;;31.33;20.98;;;12.80;99.90;;;;;;5037384;28;20025;-87
2021/10/14 05:33:45;;;;;;;33.45;23.48;;;12.80;99.90;;;;;;5036813;28;20462;-87
2021/10/14 05:36:12;;;;;;;26.50;20.85;;;12.80;99.90;;;;;;5003598;28;20025;-87
2021/10/14 05:38:38;;;;;;;29.17;21.15;;;12.80;99.90;;;;;;5031442;28;20348;-87
2021/10/14 05:41:04;;;;;;;30.13;21.67;;;12.80;99.90;;;;;;5021250;28;20036;-87
2021/10/14 05:43:30;;;;;;;27.15;21.15;;;12.80;99.90;;;;;;5040192;28;20032;-87
2021/10/14 05:45:55;;;;;;;33.97;20.48;;;12.80;99.90;;;;;;5028984;28;20041;-87
2021/10/14 05:48:21;;;;;;;30.60;21.55;;;12.80;99.90;;;;;;5035840;28;20024;-87
2021/10/14 05:50:47;;;;;;;30.40;21.38;;;12.80;99.90;;;;;;5035371;28;20028;-88
2021/10/14 05:53:12;;;;;;;27.20;20.70;;;12.80;99.90;;;;;;5033399;28;20031;-87
2021/10/14 05:55:39;;;;;;;26.85;19.63;;;12.80;99.90;;;;;;5026367;28;20461;-88
2021/10/14 05:58:04;;;;;;;24.02;18.23;;;12.80;99.90;;;;;;5030362;28;20031;-88
2021/10/14 06:00:30;;;;;;;33.08;21.38;;;12.80;99.90;;;;;;5019515;28;20037;-87
2021/10/14 06:02:56;;;;;;;24.88;19.58;;;12.80;99.90;;;;;;5028862;28;20373;-87
2021/10/14 06:05:21;;;;;;;28.73;19.60;;;12.80;99.90;;;;;;5039764;28;20636;-88
2021/10/14 06:07:50;;;;;;;29.85;21.23;;;12.80;99.90;;;;;;5020539;28;20059;-89
2021/10/14 06:10:16;;;;;;;27.50;19.75;;;12.80;99.90;;;;;;5033583;28;20028;-89
2021/10/14 06:12:42;;;;;;;25.25;19.08;;;12.80;99.90;;;;;;5057090;28;20032;-89
2021/10/14 06:15:08;;;;;;;26.52;18.70;;;12.80;99.90;;;;;;5030795;28;20039;-89
2021/10/14 06:17:33;;;;;;;32.00;20.23;;;12.80;99.90;;;;;;5038794;28;20028;-89
2021/10/14 06:20:00;;;;;;;27.65;19.77;;;12.80;99.90;;;;;;5036895;28;20074;-89
2021/10/14 06:22:26;;;;;;;29.05;21.48;;;12.80;99.90;;;;;;5018110;28;20021;-89
2021/10/14 06:24:52;;;;;;;26.45;19.98;;;12.80;99.90;;;;;;5021101;28;20025;-89
2021/10/14 06:27:18;;;;;;;31.15;21.75;;;12.80;99.90;;;;;;5021006;28;20031;-89
2021/10/14 06:29:43;;;;;;;29.77;21.00;;;12.80;99.90;;;;;;5059313;28;20028;-89
2021/10/14 06:32:09;;;;;;;27.90;20.05;;;12.90;99.90;;;;;;5029167;28;20025;-89
2021/10/14 06:34:35;;;;;;;32.20;23.50;;;12.90;99.90;;;;;;5019022;28;20029;-89
2021/10/14 06:37:01;;;;;;;31.67;22.40;;;12.90;99.90;;;;;;5041602;28;20030;-90
2021/10/14 06:39:27;;;;;;;30.63;21.70;;;12.90;99.90;;;;;;5045340;28;20025;-90
2021/10/14 06:41:55;;;;;;;33.22;22.20;;;12.90;99.90;;;;;;5022814;28;20032;-89
2021/10/14 06:44:21;;;;;;;35.45;23.33;;;12.90;99.90;;;;;;5019444;28;20064;-89
2021/10/14 06:46:47;;;;;;;35.53;23.80;;;12.90;99.90;;;;;;5033871;28;20032;-89
2021/10/14 06:49:15;;;;;;;33.42;23.58;;;12.90;99.90;;;;;;5036297;28;20033;-90
2021/10/14 06:51:41;;;;;;;34.88;23.77;;;12.90;99.90;;;;;;5016570;28;20037;-89
2021/10/14 06:54:07;;;;;;;36.95;24.48;;;13.00;99.90;;;;;;5034615;28;20021;-90
2021/10/14 06:56:32;;;;;;;33.05;23.75;;;13.00;99.90;;;;;;5003037;28;20068;-90
2021/10/14 06:58:58;;;;;;;36.15;23.90;;;13.00;99.90;;;;;;5043075;28;20039;-89
2021/10/14 07:01:24;;;;;;;35.25;23.52;;;12.90;99.90;;;;;;5005090;28;20123;-90
2021/10/14 07:03:49;;;;;;;34.17;23.83;;;13.00;99.90;;;;;;5019711;28;20029;-90
2021/10/14 07:06:15;;;;;;;36.83;25.38;;;13.00;99.90;;;;;;5018571;28;20539;-90
2021/10/14 07:08:42;;;;;;;37.72;25.83;;;13.00;99.90;;;;;;5037927;28;20017;-90
2021/10/14 07:11:08;;;;;;;40.80;26.42;;;13.00;99.90;;;;;;5047846;28;20037;-90
2021/10/14 07:13:34;;;;;;;40.13;26.45;;;13.00;99.90;;;;;;5040970;28;20072;-89
2021/10/14 07:15:59;;;;;;;39.58;25.38;;;13.00;99.90;;;;;;5024442;28;20452;-89
2021/10/14 07:18:25;;;;;;;33.63;23.58;;;13.00;99.90;;;;;;5049660;28;20063;-91
2021/10/14 07:20:51;;;;;;;40.13;26.52;;;13.00;99.90;;;;;;5024500;28;20055;-91
2021/10/14 07:23:16;;;;;;;42.15;26.70;;;13.00;99.90;;;;;;5004310;28;20157;-89
2021/10/14 07:25:44;;;;;;;38.90;25.48;;;13.00;99.90;;;;;;5003565;28;20386;-90
2021/10/14 07:28:11;;;;;;;45.22;28.50;;;13.10;99.90;;;;;;5035945;28;20029;-91
2021/10/14 07:30:38;;;;;;;39.20;27.08;;;13.10;99.90;;;;;;5021844;28;20032;-91
2021/10/14 07:33:04;;;;;;;40.47;27.85;;;13.10;99.90;;;;;;5038402;28;20461;-90
2021/10/14 07:35:31;;;;;;;38.85;26.52;;;13.10;99.90;;;;;;5020904;28;20170;-90
2021/10/14 07:37:58;;;;;;;36.75;26.70;;;13.10;99.90;;;;;;5027187;28;20017;-91
2021/10/14 07:40:24;;;;;;;39.92;27.88;;;13.10;99.90;;;;;;5063618;28;20090;-91
2021/10/14 07:42:50;;;;;;;38.13;26.75;;;13.10;99.90;;;;;;5043638;28;20030;-90
2021/10/14 07:45:15;;;;;;;39.53;26.92;;;13.10;99.90;;;;;;5019775;28;20033;-90
2021/10/14 07:47:41;;;;;;;38.33;26.35;;;13.10;99.90;;;;;;5010876;28;20103;-90
2021/10/14 07:50:07;;;;;;;44.22;27.77;;;13.10;99.90;;;;;;5028858;28;20503;-91
2021/10/14 07:52:33;;;;;;;38.40;26.73;;;13.10;99.90;;;;;;5049783;28;20116;-91
2021/10/14 07:54:58;;;;;;;37.47;25.20;;;13.10;99.90;;;;;;5012460;28;20064;-91
2021/10/14 07:57:24;;;;;;;38.33;27.02;;;13.20;99.90;;;;;;5023622;28;20025;-91
2021/10/14 07:59:52;;;;;;;34.63;25.13;;;13.20;99.90;;;;;;5039821;28;20024;-91
2021/10/14 08:02:18;;;;;;;34.92;26.15;;;13.20;99.90;;;;;;5023763;28;20041;-91
2021/10/14 08:04:45;;;;;;;38.25;26.25;;;13.20;99.90;;;;;;5023011;28;20033;-91
2021/10/14 08:07:11;;;;;;;40.33;27.75;;;13.20;99.90;;;;;;5023115;28;20470;-91
2021/10/14 08:09:37;;;;;;;37.55;27.98;;;13.20;99.90;;;;;;5022306;28;20458;-91
2021/10/14 08:12:03;;;;;;;38.08;27.63;;;13.20;99.90;;;;;;5023295;28;20048;-90
2021/10/14 08:14:28;;;;;;;37.95;27.88;;;13.20;99.90;;;;;;5007921;28;20029;-89
2021/10/14 08:16:54;;;;;;;38.28;27.27;;;13.20;99.90;;;;;;5021860;28;20025;-90
2021/10/14 08:19:20;;;;;;;36.75;28.42;;;13.20;99.90;;;;;;5027025;28;20096;-91
2021/10/14 08:21:46;;;;;;;38.75;28.17;;;13.20;99.90;;;;;;5054150;28;20032;-90
2021/10/14 08:24:11;;;;;;;38.50;27.75;;;13.30;99.90;;;;;;5020929;28;20023;-90
2021/10/14 08:26:37;;;;;;;39.45;26.73;;;13.20;99.90;;;;;;5038882;28;20032;-90
2021/10/14 08:29:03;;;;;;;38.20;27.08;;;13.30;99.90;;;;;;5024244;28;20043;-89
2021/10/14 08:31:28;;;;;;;44.40;28.98;;;13.30;99.90;;;;;;5007402;28;20033;-89
2021/10/14 08:33:54;;;;;;;39.95;25.73;;;13.30;99.90;;;;;;5029184;28;20025;-89
2021/10/14 08:36:20;;;;;;;35.58;25.05;;;13.30;99.90;;;;;;5021300;28;20025;-89
2021/10/14 08:38:47;;;;;;;32.45;24.83;;;13.30;99.90;;;;;;5033968;28;20447;-89
2021/10/14 08:41:17;;;;;;;38.42;26.83;;;13.30;99.90;;;;;;5041128;28;20075;-89
2021/10/14 08:43:44;;;;;;;41.95;27.40;;;13.40;99.90;;;;;;5035383;28;20034;-89
2021/10/14 08:46:11;;;;;;;40.20;27.02;;;13.40;99.90;;;;;;5038475;28;20068;-89
2021/10/14 08:48:36;;;;;;;33.97;25.63;;;13.40;99.90;;;;;;5050570;28;20029;-89
2021/10/14 08:51:02;;;;;;;36.35;24.40;;;13.40;99.90;;;;;;5022763;28;20033;-89
2021/10/14 08:53:28;;;;;;;35.85;25.23;;;13.40;99.90;;;;;;5039075;28;20425;-89
2021/10/14 08:55:53;;;;;;;35.35;25.60;;;13.50;99.90;;;;;;5035069;28;20053;-90
2021/10/14 08:58:19;;;;;;;33.55;24.05;;;13.50;99.90;;;;;;5022109;28;20026;-89
2021/10/14 09:01:12;;;;;;;35.60;24.00;;;13.50;99.90;;;;;;5019269;28;20504;-89
2021/10/14 09:03:48;;;;;;;36.92;24.92;;;13.50;99.90;;;;;;5053830;28;20478;-91
2021/10/14 09:06:17;;;;;;;37.15;25.55;;;13.50;99.90;;;;;;5019470;28;20047;-89
2021/10/14 09:08:47;;;;;;;36.20;25.60;;;13.50;99.90;;;;;;5034390;28;20059;-90
2021/10/14 09:11:16;;;;;;;37.55;25.42;;;13.50;99.90;;;;;;5048905;22;20053;-88
2021/10/14 09:13:53;;;;;;;37.17;25.02;;;13.50;99.90;;;;;;5013280;28;20068;-88
2021/10/14 09:16:27;;;;;;;34.10;24.00;;;13.50;99.90;;;;;;5014601;28;20018;-88
2021/10/14 09:18:56;;;;;;;35.95;24.77;;;13.60;99.90;;;;;;5014252;28;20360;-89
2021/10/14 09:21:29;;;;;;;34.00;24.27;;;13.60;99.90;;;;;;5010211;28;20360;-88
2021/10/14 09:24:01;;;;;;;38.10;24.58;;;13.60;99.90;;;;;;5015453;28;20033;-88
2021/10/14 09:26:33;;;;;;;39.05;27.65;;;13.60;99.90;;;;;;5015089;28;20519;-88
2021/10/14 09:29:11;;;;;;;34.42;23.88;;;13.70;99.90;;;;;;5014509;28;20093;-88
2021/10/14 09:31:50;;;;;;;33.53;23.95;;;13.70;99.90;;;;;;5013882;28;20033;-88
2021/10/14 09:34:34;;;;;;;32.15;23.17;;;13.70;99.90;;;;;;5023216;28;20525;-88
2021/10/14 09:37:03;;;;;;;32.20;23.35;;;13.70;99.90;;;;;;5018682;28;20026;-89
2021/10/14 09:39:29;;;;;;;31.33;23.90;;;13.70;99.90;;;;;;5014545;28;20026;-88
2021/10/14 09:41:57;;;;;;;31.05;22.63;;;13.80;99.90;;;;;;5014519;28;20104;-88
2021/10/14 09:44:26;;;;;;;32.47;24.25;;;13.80;99.90;;;;;;5012367;28;20120;-88
2021/10/14 09:46:54;;;;;;;35.50;24.25;;;13.80;99.90;;;;;;5007807;28;20020;-88
2021/10/14 09:49:28;;;;;;;36.10;24.25;;;13.80;99.90;;;;;;5030661;28;20057;-89
2021/10/14 09:51:56;;;;;;;31.40;23.40;;;13.80;99.90;;;;;;5015201;28;20033;-88
2021/10/14 09:54:22;;;;;;;29.70;21.60;;;13.80;99.90;;;;;;5014359;28;20022;-88
2021/10/14 09:56:48;;;;;;;29.83;22.33;;;13.80;99.90;;;;;;5014217;28;20052;-89
2021/10/14 09:59:14;;;;;;;31.42;22.13;;;13.90;99.90;;;;;;5014472;28;20471;-89
2021/10/14 10:01:41;;;;;;;33.15;24.60;;;13.90;99.90;;;;;;4999127;28;20040;-88
2021/10/14 10:04:07;;;;;;;37.30;25.10;;;13.90;99.90;;;;;;4998404;28;20073;-89
2021/10/14 10:06:34;;;;;;;31.80;24.30;;;13.90;99.90;;;;;;5015460;28;20037;-89
2021/10/14 10:09:15;;;;;;;34.40;23.15;;;13.90;99.90;;;;;;5014881;28;20428;-88
2021/10/14 10:12:05;;;;;;;34.13;23.45;;;13.90;99.90;;;;;;5015439;28;20108;-89
2021/10/14 10:14:31;;;;;;;31.77;24.02;;;14.00;99.90;;;;;;5003326;28;20022;-88
2021/10/14 10:17:07;;;;;;;37.28;24.90;;;14.00;99.90;;;;;;5014438;28;20386;-87
2021/10/14 10:19:59;;;;;;;37.17;25.95;;;14.00;99.90;;;;;;5013731;28;20029;-89
2021/10/14 10:22:34;;;;;;;37.08;28.30;;;14.00;99.90;;;;;;4993455;28;20490;-88
2021/10/14 10:25:19;;;;;;;36.47;28.15;;;14.10;99.90;;;;;;5015272;28;20462;-88
2021/10/14 10:27:45;;;;;;;35.00;26.38;;;14.00;99.90;;;;;;5014252;28;20018;-88
2021/10/14 10:30:34;;;;;;;35.97;26.92;;;14.10;99.90;;;;;;5013870;28;20058;-87
2021/10/14 10:33:04;;;;;;;39.40;27.92;;;14.10;99.90;;;;;;5013775;28;20109;-88
2021/10/14 10:35:45;;;;;;;34.15;25.98;;;14.10;99.90;;;;;;5018313;28;20067;-87
2021/10/14 10:38:19;;;;;;;35.85;26.73;;;14.20;99.90;;;;;;5018268;28;20022;-88
2021/10/14 10:40:51;;;;;;;38.60;28.30;;;14.20;99.90;;;;;;5007002;28;20035;-88
2021/10/14 10:43:29;;;;;;;41.58;28.90;;;14.20;99.90;;;;;;5017872;28;20421;-88
2021/10/14 10:46:06;;;;;;;37.88;28.05;;;14.30;99.90;;;;;;5018289;28;20085;-88
2021/10/14 10:48:43;;;;;;;38.42;28.42;;;14.30;99.90;;;;;;5017943;28;20474;-88
2021/10/14 10:51:26;;;;;;;35.42;28.02;;;14.30;99.90;;;;;;5019448;28;20053;-87
2021/10/14 10:53:52;;;;;;;37.00;27.40;;;14.30;99.90;;;;;;5007872;28;20026;-88
2021/10/14 10:56:28;;;;;;;37.53;26.83;;;14.40;99.90;;;;;;5020201;28;20026;-88
2021/10/14 10:58:55;;;;;;;34.35;26.70;;;14.50;99.90;;;;;;5017700;28;20056;-90
2021/10/14 11:01:21;;;;;;;35.40;26.95;;;14.50;99.90;;;;;;5013395;28;20038;-88
2021/10/14 11:03:51;;;;;;;35.10;26.50;;;14.50;99.90;;;;;;5019699;28;20049;-89
2021/10/14 11:06:17;;;;;;;33.03;25.42;;;14.50;99.90;;;;;;5021075;28;20113;-90
2021/10/14 11:08:42;;;;;;;37.63;26.73;;;14.60;99.90;;;;;;5018733;28;20270;-89
2021/10/14 11:11:11;;;;;;;32.40;25.60;;;14.60;99.90;;;;;;4997875;28;20046;-89
2021/10/14 11:13:42;;;;;;;37.58;27.55;;;14.60;99.90;;;;;;5027052;28;20022;-89
2021/10/14 11:16:10;;;;;;;31.63;24.65;;;14.70;99.90;;;;;;5033430;28;20021;-88
2021/10/14 11:18:42;;;;;;;34.35;26.52;;;14.70;99.90;;;;;;5006567;28;20023;-95
2021/10/14 11:21:11;;;;;;;30.92;24.73;;;14.70;99.90;;;;;;5018618;28;20034;-95
2021/10/14 11:23:38;;;;;;;29.67;23.60;;;14.70;99.90;;;;;;5004855;28;20028;-92
2021/10/14 11:26:03;;;;;;;29.30;22.70;;;14.80;99.90;;;;;;5016783;28;20122;-88
2021/10/14 11:28:29;;;;;;;30.23;22.80;;;14.80;99.90;;;;;;5019180;28;20053;-87
2021/10/14 11:30:59;;;;;;;27.67;22.88;;;14.80;99.90;;;;;;5007726;28;20042;-88
2021/10/14 11:33:33;;;;;;;27.77;21.03;;;14.80;99.90;;;;;;5030963;28;20064;-89
2021/10/14 11:36:06;;;;;;;25.08;20.00;;;14.90;99.90;;;;;;5020551;28;20025;-89
2021/10/14 11:38:33;;;;;;;22.15;17.73;;;14.90;99.90;;;;;;5002913;28;20027;-89
2021/10/14 11:41:00;;;;;;;25.65;21.35;;;14.90;99.90;;;;;;5048298;28;20021;-89
2021/10/14 11:43:29;;;;;;;22.33;19.15;;;15.00;99.90;;;;;;5057077;28;20025;-88
2021/10/14 11:45:55;;;;;;;26.80;19.88;;;15.00;99.90;;;;;;5035982;28;20027;-88
2021/10/14 11:48:34;;;;;;;24.77;20.08;;;15.00;99.90;;;;;;5031133;28;20065;-88
2021/10/14 11:51:05;;;;;;;23.90;20.13;;;15.10;99.90;;;;;;5048413;28;20056;-89
2021/10/14 11:53:30;;;;;;;;;;;15.10;99.90;;;;;;5046467;28;20014;-89
2021/10/14 11:56:02;;;;;;;23.88;19.55;;;15.20;99.90;;;;;;5019189;28;19992;-89
2021/10/14 11:58:28;;;;;;;22.02;17.98;;;15.20;99.90;;;;;;5018165;28;20083;-88
2021/10/14 12:00:58;;;;;;;23.63;17.02;;;15.20;99.90;;;;;;5017682;28;20120;-88
2021/10/14 12:03:25;;;;;;;24.93;19.77;;;15.20;99.90;;;;;;5016190;28;20028;-89
2021/10/14 12:05:50;;;;;;;22.52;17.13;;;15.30;99.90;;;;;;5018761;28;20026;-88
2021/10/14 12:08:17;;;;;;;20.48;15.93;;;15.30;99.90;;;;;;5001168;28;20880;-89
2021/10/14 12:10:48;;;;;;;19.65;16.77;;;15.30;99.90;;;;;;5029491;28;20140;-88
2021/10/14 12:13:15;;;;;;;20.52;16.80;;;15.30;99.90;;;;;;4989279;28;20053;-88
2021/10/14 12:15:41;;;;;;;20.90;17.15;;;15.40;99.90;;;;;;5003371;28;20053;-88
2021/10/14 12:18:11;;;;;;;22.35;17.83;;;15.40;99.90;;;;;;5036457;28;20029;-92
2021/10/14 12:20:37;;;;;;;20.63;15.87;;;15.40;99.90;;;;;;5040848;28;20025;-89
2021/10/14 12:23:06;;;;;;;22.17;16.35;;;15.40;99.90;;;;;;5006637;28;20287;-89
2021/10/14 12:25:34;;;;;;;20.30;16.42;;;15.40;99.90;;;;;;5030400;28;20355;-88
2021/10/14 12:28:00;;;;;;;19.70;16.90;;;15.40;99.90;;;;;;5010373;28;20515;-90
2021/10/14 12:30:31;;;;;;;25.23;18.27;;;15.40;99.90;;;;;;5016588;28;20036;-89
2021/10/14 12:33:09;;;;;;;;;;;15.40;99.90;;;;;;5009762;28;20045;-89